sensor_id;sensor_type;location;lat;lon;timestamp;P1;durP1;ratioP1;P2;durP2;ratioP2
19113;SDS011;9689;51.052;13.772;2022-11-15T00:00:19;67.75;;;36.15;;
19113;SDS011;9689;51.052;13.772;2022-11-15T00:05:38;67.45;;;36.30;;
19113;SDS011;9689;51.052;13.772;2022-11-15T00:10:59;70.68;;;36.08;;
19113;SDS011;9689;51.052;13.772;2022-11-15T00:16:20;70.35;;;35.80;;
19113;SDS011;9689;51.052;13.772;2022-11-15T00:21:39;73.22;;;37.95;;
19113;SDS011;9689;51.052;13.772;2022-11-15T00:27:00;69.53;;;37.40;;
19113;SDS011;9689;51.052;13.772;2022-11-15T00:32:24;70.63;;;37.10;;
19113;SDS011;9689;51.052;13.772;2022-11-15T00:37:43;69.60;;;38.85;;
19113;SDS011;9689;51.052;13.772;2022-11-15T00:43:05;76.13;;;38.13;;
19113;SDS011;9689;51.052;13.772;2022-11-15T00:48:24;78.35;;;38.80;;
19113;SDS011;9689;51.052;13.772;2022-11-15T00:53:44;76.32;;;38.00;;
19113;SDS011;9689;51.052;13.772;2022-11-15T00:59:04;76.35;;;38.97;;
19113;SDS011;9689;51.052;13.772;2022-11-15T01:04:23;80.43;;;40.17;;
19113;SDS011;9689;51.052;13.772;2022-11-15T01:09:43;78.07;;;40.42;;
19113;SDS011;9689;51.052;13.772;2022-11-15T01:15:04;77.53;;;40.45;;
19113;SDS011;9689;51.052;13.772;2022-11-15T01:20:24;83.40;;;41.13;;
19113;SDS011;9689;51.052;13.772;2022-11-15T01:25:43;77.70;;;40.03;;
19113;SDS011;9689;51.052;13.772;2022-11-15T01:31:05;74.68;;;38.83;;
19113;SDS011;9689;51.052;13.772;2022-11-15T01:36:25;82.38;;;41.03;;
19113;SDS011;9689;51.052;13.772;2022-11-15T01:41:44;81.28;;;42.50;;
19113;SDS011;9689;51.052;13.772;2022-11-15T01:47:05;86.78;;;40.92;;
19113;SDS011;9689;51.052;13.772;2022-11-15T01:52:28;82.55;;;40.35;;
19113;SDS011;9689;51.052;13.772;2022-11-15T01:57:50;89.97;;;42.65;;
19113;SDS011;9689;51.052;13.772;2022-11-15T02:03:13;88.03;;;39.78;;
19113;SDS011;9689;51.052;13.772;2022-11-15T02:08:32;87.55;;;38.95;;
19113;SDS011;9689;51.052;13.772;2022-11-15T02:13:52;79.80;;;37.85;;
19113;SDS011;9689;51.052;13.772;2022-11-15T02:19:16;77.28;;;37.85;;
19113;SDS011;9689;51.052;13.772;2022-11-15T02:24:57;83.18;;;39.90;;
19113;SDS011;9689;51.052;13.772;2022-11-15T02:30:25;80.00;;;38.63;;
19113;SDS011;9689;51.052;13.772;2022-11-15T02:35:57;78.82;;;38.47;;
19113;SDS011;9689;51.052;13.772;2022-11-15T02:41:20;83.53;;;39.03;;
19113;SDS011;9689;51.052;13.772;2022-11-15T02:46:47;87.60;;;37.90;;
19113;SDS011;9689;51.052;13.772;2022-11-15T02:52:27;76.85;;;35.63;;
19113;SDS011;9689;51.052;13.772;2022-11-15T02:57:50;78.05;;;35.42;;
19113;SDS011;9689;51.052;13.772;2022-11-15T03:03:16;78.78;;;36.70;;
19113;SDS011;9689;51.052;13.772;2022-11-15T03:08:50;73.10;;;35.10;;
19113;SDS011;9689;51.052;13.772;2022-11-15T03:14:18;76.47;;;36.90;;
19113;SDS011;9689;51.052;13.772;2022-11-15T03:19:44;74.00;;;34.67;;
19113;SDS011;9689;51.052;13.772;2022-11-15T03:25:06;78.68;;;36.20;;
19113;SDS011;9689;51.052;13.772;2022-11-15T03:30:29;76.60;;;35.85;;
19113;SDS011;9689;51.052;13.772;2022-11-15T03:35:53;80.35;;;36.17;;
19113;SDS011;9689;51.052;13.772;2022-11-15T03:41:15;74.07;;;34.53;;
19113;SDS011;9689;51.052;13.772;2022-11-15T03:46:42;73.40;;;33.03;;
19113;SDS011;9689;51.052;13.772;2022-11-15T03:52:07;73.18;;;33.67;;
19113;SDS011;9689;51.052;13.772;2022-11-15T03:57:29;81.70;;;35.10;;
19113;SDS011;9689;51.052;13.772;2022-11-15T04:02:48;69.35;;;32.65;;
19113;SDS011;9689;51.052;13.772;2022-11-15T04:08:09;74.75;;;33.90;;
19113;SDS011;9689;51.052;13.772;2022-11-15T04:13:28;74.60;;;32.97;;
19113;SDS011;9689;51.052;13.772;2022-11-15T04:18:48;67.53;;;32.75;;
19113;SDS011;9689;51.052;13.772;2022-11-15T04:24:29;68.85;;;32.20;;
19113;SDS011;9689;51.052;13.772;2022-11-15T04:29:48;64.32;;;30.95;;
19113;SDS011;9689;51.052;13.772;2022-11-15T04:35:07;73.40;;;34.08;;
19113;SDS011;9689;51.052;13.772;2022-11-15T04:40:29;65.47;;;30.88;;
19113;SDS011;9689;51.052;13.772;2022-11-15T04:45:48;68.57;;;32.83;;
19113;SDS011;9689;51.052;13.772;2022-11-15T04:51:07;71.07;;;31.77;;
19113;SDS011;9689;51.052;13.772;2022-11-15T04:56:28;62.70;;;31.27;;
19113;SDS011;9689;51.052;13.772;2022-11-15T05:01:47;68.88;;;31.20;;
19113;SDS011;9689;51.052;13.772;2022-11-15T05:07:06;65.38;;;30.92;;
19113;SDS011;9689;51.052;13.772;2022-11-15T05:12:27;67.53;;;30.60;;
19113;SDS011;9689;51.052;13.772;2022-11-15T05:17:46;63.92;;;30.58;;
19113;SDS011;9689;51.052;13.772;2022-11-15T05:23:05;66.93;;;31.13;;
19113;SDS011;9689;51.052;13.772;2022-11-15T05:28:26;63.88;;;31.60;;
19113;SDS011;9689;51.052;13.772;2022-11-15T05:33:45;69.45;;;31.52;;
19113;SDS011;9689;51.052;13.772;2022-11-15T05:39:05;65.53;;;30.40;;
19113;SDS011;9689;51.052;13.772;2022-11-15T05:44:27;70.40;;;33.33;;
19113;SDS011;9689;51.052;13.772;2022-11-15T05:49:47;71.03;;;33.35;;
19113;SDS011;9689;51.052;13.772;2022-11-15T05:55:08;69.00;;;30.50;;
19113;SDS011;9689;51.052;13.772;2022-11-15T06:00:29;68.13;;;30.42;;
19113;SDS011;9689;51.052;13.772;2022-11-15T06:05:48;68.57;;;31.00;;
19113;SDS011;9689;51.052;13.772;2022-11-15T06:11:08;62.78;;;28.92;;
19113;SDS011;9689;51.052;13.772;2022-11-15T06:16:28;60.42;;;29.70;;
19113;SDS011;9689;51.052;13.772;2022-11-15T06:21:47;67.13;;;30.55;;
19113;SDS011;9689;51.052;13.772;2022-11-15T06:27:06;64.68;;;30.15;;
19113;SDS011;9689;51.052;13.772;2022-11-15T06:32:28;58.88;;;28.45;;
19113;SDS011;9689;51.052;13.772;2022-11-15T06:37:47;62.35;;;30.42;;
19113;SDS011;9689;51.052;13.772;2022-11-15T06:43:06;59.17;;;28.45;;
19113;SDS011;9689;51.052;13.772;2022-11-15T06:48:27;58.33;;;28.00;;
19113;SDS011;9689;51.052;13.772;2022-11-15T06:53:47;60.58;;;27.48;;
19113;SDS011;9689;51.052;13.772;2022-11-15T06:59:06;62.38;;;28.52;;
19113;SDS011;9689;51.052;13.772;2022-11-15T07:04:27;59.40;;;27.17;;
19113;SDS011;9689;51.052;13.772;2022-11-15T07:09:46;52.03;;;25.42;;
19113;SDS011;9689;51.052;13.772;2022-11-15T07:15:06;53.10;;;25.55;;
19113;SDS011;9689;51.052;13.772;2022-11-15T07:20:27;52.65;;;25.10;;
19113;SDS011;9689;51.052;13.772;2022-11-15T07:25:46;52.42;;;26.65;;
19113;SDS011;9689;51.052;13.772;2022-11-15T07:31:06;51.75;;;25.15;;
19113;SDS011;9689;51.052;13.772;2022-11-15T07:36:28;56.60;;;27.20;;
19113;SDS011;9689;51.052;13.772;2022-11-15T07:41:47;57.67;;;26.48;;
19113;SDS011;9689;51.052;13.772;2022-11-15T07:47:07;56.75;;;26.38;;
19113;SDS011;9689;51.052;13.772;2022-11-15T07:52:28;52.30;;;25.13;;
19113;SDS011;9689;51.052;13.772;2022-11-15T07:57:47;52.83;;;25.10;;
19113;SDS011;9689;51.052;13.772;2022-11-15T08:03:07;53.60;;;24.02;;
19113;SDS011;9689;51.052;13.772;2022-11-15T08:08:29;50.67;;;24.27;;
19113;SDS011;9689;51.052;13.772;2022-11-15T08:13:48;53.67;;;23.60;;
19113;SDS011;9689;51.052;13.772;2022-11-15T08:19:08;51.03;;;22.98;;
19113;SDS011;9689;51.052;13.772;2022-11-15T08:24:28;48.30;;;22.95;;
19113;SDS011;9689;51.052;13.772;2022-11-15T08:29:48;46.45;;;21.48;;
19113;SDS011;9689;51.052;13.772;2022-11-15T08:35:11;40.67;;;21.23;;
19113;SDS011;9689;51.052;13.772;2022-11-15T08:40:32;46.22;;;21.13;;
19113;SDS011;9689;51.052;13.772;2022-11-15T08:45:51;48.08;;;21.85;;
19113;SDS011;9689;51.052;13.772;2022-11-15T08:51:10;45.95;;;22.63;;
19113;SDS011;9689;51.052;13.772;2022-11-15T08:56:31;46.28;;;20.95;;
19113;SDS011;9689;51.052;13.772;2022-11-15T09:01:50;47.40;;;22.25;;
19113;SDS011;9689;51.052;13.772;2022-11-15T09:07:10;44.20;;;21.27;;
19113;SDS011;9689;51.052;13.772;2022-11-15T09:12:31;41.25;;;21.50;;
19113;SDS011;9689;51.052;13.772;2022-11-15T09:17:51;39.88;;;20.48;;
19113;SDS011;9689;51.052;13.772;2022-11-15T09:23:10;44.35;;;21.58;;
19113;SDS011;9689;51.052;13.772;2022-11-15T09:28:31;40.70;;;20.73;;
19113;SDS011;9689;51.052;13.772;2022-11-15T09:33:52;39.15;;;19.17;;
19113;SDS011;9689;51.052;13.772;2022-11-15T09:39:11;40.33;;;20.48;;
19113;SDS011;9689;51.052;13.772;2022-11-15T09:44:37;37.10;;;19.00;;
19113;SDS011;9689;51.052;13.772;2022-11-15T09:50:06;36.15;;;18.80;;
19113;SDS011;9689;51.052;13.772;2022-11-15T09:55:10;35.92;;;18.45;;
19113;SDS011;9689;51.052;13.772;2022-11-15T10:00:22;32.03;;;18.13;;
19113;SDS011;9689;51.052;13.772;2022-11-15T10:05:48;39.15;;;19.58;;
19113;SDS011;9689;51.052;13.772;2022-11-15T10:10:52;41.08;;;20.80;;
19113;SDS011;9689;51.052;13.772;2022-11-15T10:16:24;38.78;;;17.58;;
19113;SDS011;9689;51.052;13.772;2022-11-15T10:21:40;35.03;;;17.95;;
19113;SDS011;9689;51.052;13.772;2022-11-15T10:26:51;31.63;;;16.33;;
19113;SDS011;9689;51.052;13.772;2022-11-15T10:31:54;33.42;;;16.40;;
19113;SDS011;9689;51.052;13.772;2022-11-15T10:36:55;37.78;;;16.38;;
19113;SDS011;9689;51.052;13.772;2022-11-15T10:41:57;34.45;;;16.65;;
19113;SDS011;9689;51.052;13.772;2022-11-15T10:47:06;34.53;;;16.70;;
19113;SDS011;9689;51.052;13.772;2022-11-15T10:52:21;35.72;;;17.15;;
19113;SDS011;9689;51.052;13.772;2022-11-15T10:57:23;33.05;;;16.83;;
19113;SDS011;9689;51.052;13.772;2022-11-15T11:02:29;35.88;;;17.40;;
19113;SDS011;9689;51.052;13.772;2022-11-15T11:07:32;32.65;;;16.75;;
19113;SDS011;9689;51.052;13.772;2022-11-15T11:12:35;35.22;;;16.77;;
19113;SDS011;9689;51.052;13.772;2022-11-15T11:17:41;30.30;;;16.25;;
19113;SDS011;9689;51.052;13.772;2022-11-15T11:22:56;29.92;;;15.63;;
19113;SDS011;9689;51.052;13.772;2022-11-15T11:28:12;25.98;;;14.57;;
19113;SDS011;9689;51.052;13.772;2022-11-15T11:33:29;32.28;;;15.80;;
19113;SDS011;9689;51.052;13.772;2022-11-15T11:38:43;27.63;;;14.68;;
19113;SDS011;9689;51.052;13.772;2022-11-15T11:43:58;31.75;;;15.88;;
19113;SDS011;9689;51.052;13.772;2022-11-15T11:49:09;31.00;;;15.40;;
19113;SDS011;9689;51.052;13.772;2022-11-15T11:54:13;28.15;;;14.38;;
19113;SDS011;9689;51.052;13.772;2022-11-15T11:59:22;31.40;;;15.73;;
19113;SDS011;9689;51.052;13.772;2022-11-15T12:04:29;27.83;;;14.63;;
19113;SDS011;9689;51.052;13.772;2022-11-15T12:09:32;33.00;;;16.40;;
19113;SDS011;9689;51.052;13.772;2022-11-15T12:14:38;30.95;;;14.90;;
19113;SDS011;9689;51.052;13.772;2022-11-15T12:19:45;35.72;;;16.35;;
19113;SDS011;9689;51.052;13.772;2022-11-15T12:24:48;33.17;;;15.98;;
19113;SDS011;9689;51.052;13.772;2022-11-15T12:29:54;27.50;;;14.50;;
19113;SDS011;9689;51.052;13.772;2022-11-15T12:35:00;31.17;;;15.70;;
19113;SDS011;9689;51.052;13.772;2022-11-15T12:40:22;30.50;;;16.10;;
19113;SDS011;9689;51.052;13.772;2022-11-15T12:45:31;26.45;;;14.85;;
19113;SDS011;9689;51.052;13.772;2022-11-15T12:50:54;32.38;;;15.82;;
19113;SDS011;9689;51.052;13.772;2022-11-15T12:56:17;29.65;;;14.88;;
19113;SDS011;9689;51.052;13.772;2022-11-15T13:07:02;34.95;;;16.63;;
19113;SDS011;9689;51.052;13.772;2022-11-15T13:12:06;33.40;;;15.90;;
19113;SDS011;9689;51.052;13.772;2022-11-15T13:17:26;30.50;;;15.82;;
19113;SDS011;9689;51.052;13.772;2022-11-15T13:22:39;30.02;;;15.55;;
19113;SDS011;9689;51.052;13.772;2022-11-15T13:27:58;30.85;;;15.00;;
19113;SDS011;9689;51.052;13.772;2022-11-15T13:33:08;30.27;;;15.93;;
19113;SDS011;9689;51.052;13.772;2022-11-15T13:38:18;29.30;;;15.20;;
19113;SDS011;9689;51.052;13.772;2022-11-15T13:43:35;29.63;;;15.43;;
19113;SDS011;9689;51.052;13.772;2022-11-15T13:48:36;27.85;;;14.50;;
19113;SDS011;9689;51.052;13.772;2022-11-15T13:53:39;34.30;;;15.95;;
19113;SDS011;9689;51.052;13.772;2022-11-15T13:58:46;34.78;;;15.98;;
19113;SDS011;9689;51.052;13.772;2022-11-15T14:03:48;32.60;;;16.05;;
19113;SDS011;9689;51.052;13.772;2022-11-15T14:09:02;32.13;;;15.95;;
19113;SDS011;9689;51.052;13.772;2022-11-15T14:14:15;32.97;;;17.23;;
19113;SDS011;9689;51.052;13.772;2022-11-15T14:24:40;32.35;;;15.93;;
19113;SDS011;9689;51.052;13.772;2022-11-15T14:29:42;36.70;;;17.25;;
19113;SDS011;9689;51.052;13.772;2022-11-15T14:34:43;37.53;;;17.20;;
19113;SDS011;9689;51.052;13.772;2022-11-15T14:39:45;36.53;;;18.02;;
19113;SDS011;9689;51.052;13.772;2022-11-15T14:44:47;29.45;;;16.25;;
19113;SDS011;9689;51.052;13.772;2022-11-15T14:49:47;32.83;;;17.25;;
19113;SDS011;9689;51.052;13.772;2022-11-15T14:54:50;32.78;;;16.83;;
19113;SDS011;9689;51.052;13.772;2022-11-15T14:59:51;33.28;;;16.90;;
19113;SDS011;9689;51.052;13.772;2022-11-15T15:04:52;37.55;;;16.58;;
19113;SDS011;9689;51.052;13.772;2022-11-15T15:09:55;34.33;;;16.83;;
19113;SDS011;9689;51.052;13.772;2022-11-15T15:15:16;36.10;;;17.60;;
19113;SDS011;9689;51.052;13.772;2022-11-15T15:20:20;35.58;;;18.15;;
19113;SDS011;9689;51.052;13.772;2022-11-15T15:25:23;34.95;;;17.02;;
19113;SDS011;9689;51.052;13.772;2022-11-15T15:30:27;35.65;;;17.52;;
19113;SDS011;9689;51.052;13.772;2022-11-15T15:35:30;35.10;;;17.88;;
19113;SDS011;9689;51.052;13.772;2022-11-15T15:40:35;31.23;;;16.50;;
19113;SDS011;9689;51.052;13.772;2022-11-15T15:45:36;39.40;;;19.42;;
19113;SDS011;9689;51.052;13.772;2022-11-15T15:50:38;35.13;;;17.08;;
19113;SDS011;9689;51.052;13.772;2022-11-15T15:55:43;39.15;;;18.30;;
19113;SDS011;9689;51.052;13.772;2022-11-15T16:00:44;43.13;;;19.25;;
19113;SDS011;9689;51.052;13.772;2022-11-15T16:05:45;35.67;;;18.08;;
19113;SDS011;9689;51.052;13.772;2022-11-15T16:10:48;42.25;;;19.40;;
19113;SDS011;9689;51.052;13.772;2022-11-15T16:15:51;43.55;;;21.10;;
19113;SDS011;9689;51.052;13.772;2022-11-15T16:20:53;44.55;;;19.70;;
19113;SDS011;9689;51.052;13.772;2022-11-15T16:25:57;40.63;;;19.13;;
19113;SDS011;9689;51.052;13.772;2022-11-15T16:31:01;39.78;;;19.48;;
19113;SDS011;9689;51.052;13.772;2022-11-15T16:36:04;43.40;;;19.23;;
19113;SDS011;9689;51.052;13.772;2022-11-15T16:41:08;40.75;;;19.70;;
19113;SDS011;9689;51.052;13.772;2022-11-15T16:46:12;45.00;;;19.92;;
19113;SDS011;9689;51.052;13.772;2022-11-15T16:51:16;43.78;;;20.42;;
19113;SDS011;9689;51.052;13.772;2022-11-15T16:56:21;46.05;;;22.02;;
19113;SDS011;9689;51.052;13.772;2022-11-15T17:01:24;41.55;;;19.98;;
19113;SDS011;9689;51.052;13.772;2022-11-15T17:06:27;39.20;;;19.02;;
19113;SDS011;9689;51.052;13.772;2022-11-15T17:11:29;39.50;;;18.95;;
19113;SDS011;9689;51.052;13.772;2022-11-15T17:16:30;42.90;;;19.17;;
19113;SDS011;9689;51.052;13.772;2022-11-15T17:21:32;39.05;;;18.65;;
19113;SDS011;9689;51.052;13.772;2022-11-15T17:26:34;42.08;;;19.77;;
19113;SDS011;9689;51.052;13.772;2022-11-15T17:31:40;42.30;;;20.10;;
19113;SDS011;9689;51.052;13.772;2022-11-15T17:36:42;48.08;;;19.67;;
19113;SDS011;9689;51.052;13.772;2022-11-15T17:41:45;42.15;;;19.90;;
19113;SDS011;9689;51.052;13.772;2022-11-15T17:46:46;42.28;;;19.00;;
19113;SDS011;9689;51.052;13.772;2022-11-15T17:51:47;40.03;;;19.52;;
19113;SDS011;9689;51.052;13.772;2022-11-15T17:56:50;40.58;;;18.75;;
19113;SDS011;9689;51.052;13.772;2022-11-15T18:01:50;43.83;;;19.10;;
19113;SDS011;9689;51.052;13.772;2022-11-15T18:06:52;44.97;;;20.85;;
19113;SDS011;9689;51.052;13.772;2022-11-15T18:11:55;43.45;;;19.73;;
19113;SDS011;9689;51.052;13.772;2022-11-15T18:16:56;44.58;;;19.65;;
19113;SDS011;9689;51.052;13.772;2022-11-15T18:21:57;44.55;;;19.88;;
19113;SDS011;9689;51.052;13.772;2022-11-15T18:27:01;41.72;;;19.88;;
19113;SDS011;9689;51.052;13.772;2022-11-15T18:32:03;42.05;;;18.25;;
19113;SDS011;9689;51.052;13.772;2022-11-15T18:37:10;38.20;;;18.48;;
19113;SDS011;9689;51.052;13.772;2022-11-15T18:42:12;40.85;;;17.38;;
19113;SDS011;9689;51.052;13.772;2022-11-15T18:47:13;41.03;;;18.63;;
19113;SDS011;9689;51.052;13.772;2022-11-15T18:52:14;36.80;;;17.83;;
19113;SDS011;9689;51.052;13.772;2022-11-15T18:57:16;38.72;;;18.33;;
19113;SDS011;9689;51.052;13.772;2022-11-15T19:02:17;44.22;;;18.50;;
19113;SDS011;9689;51.052;13.772;2022-11-15T19:07:18;40.40;;;18.90;;
19113;SDS011;9689;51.052;13.772;2022-11-15T19:12:20;35.38;;;16.52;;
19113;SDS011;9689;51.052;13.772;2022-11-15T19:17:21;36.95;;;17.63;;
19113;SDS011;9689;51.052;13.772;2022-11-15T19:22:22;39.67;;;17.40;;
19113;SDS011;9689;51.052;13.772;2022-11-15T19:27:24;39.47;;;16.48;;
19113;SDS011;9689;51.052;13.772;2022-11-15T19:32:26;33.65;;;16.42;;
19113;SDS011;9689;51.052;13.772;2022-11-15T19:37:27;31.23;;;15.23;;
19113;SDS011;9689;51.052;13.772;2022-11-15T19:42:29;33.03;;;15.85;;
19113;SDS011;9689;51.052;13.772;2022-11-15T19:47:30;29.13;;;14.50;;
19113;SDS011;9689;51.052;13.772;2022-11-15T19:52:31;34.70;;;15.27;;
19113;SDS011;9689;51.052;13.772;2022-11-15T19:57:33;29.83;;;14.95;;
19113;SDS011;9689;51.052;13.772;2022-11-15T20:02:34;27.52;;;13.70;;
19113;SDS011;9689;51.052;13.772;2022-11-15T20:07:35;25.38;;;13.55;;
19113;SDS011;9689;51.052;13.772;2022-11-15T20:12:37;29.05;;;13.65;;
19113;SDS011;9689;51.052;13.772;2022-11-15T20:17:38;25.75;;;13.77;;
19113;SDS011;9689;51.052;13.772;2022-11-15T20:22:39;25.77;;;12.88;;
19113;SDS011;9689;51.052;13.772;2022-11-15T20:27:41;27.98;;;13.68;;
19113;SDS011;9689;51.052;13.772;2022-11-15T20:32:42;36.75;;;13.85;;
19113;SDS011;9689;51.052;13.772;2022-11-15T20:37:43;26.73;;;13.95;;
19113;SDS011;9689;51.052;13.772;2022-11-15T20:42:46;26.48;;;13.15;;
19113;SDS011;9689;51.052;13.772;2022-11-15T20:47:47;30.42;;;14.18;;
19113;SDS011;9689;51.052;13.772;2022-11-15T20:52:48;29.00;;;14.57;;
19113;SDS011;9689;51.052;13.772;2022-11-15T20:57:50;29.35;;;14.10;;
19113;SDS011;9689;51.052;13.772;2022-11-15T21:02:51;26.20;;;13.27;;
19113;SDS011;9689;51.052;13.772;2022-11-15T21:07:52;28.52;;;14.40;;
19113;SDS011;9689;51.052;13.772;2022-11-15T21:12:54;27.70;;;12.90;;
19113;SDS011;9689;51.052;13.772;2022-11-15T21:17:55;24.73;;;12.63;;
19113;SDS011;9689;51.052;13.772;2022-11-15T21:22:56;28.23;;;12.35;;
19113;SDS011;9689;51.052;13.772;2022-11-15T21:27:58;25.73;;;12.80;;
19113;SDS011;9689;51.052;13.772;2022-11-15T21:32:59;26.85;;;13.55;;
19113;SDS011;9689;51.052;13.772;2022-11-15T21:37:59;25.40;;;12.27;;
19113;SDS011;9689;51.052;13.772;2022-11-15T21:43:02;22.90;;;12.88;;
19113;SDS011;9689;51.052;13.772;2022-11-15T21:48:03;21.88;;;11.85;;
19113;SDS011;9689;51.052;13.772;2022-11-15T21:53:04;22.63;;;11.98;;
19113;SDS011;9689;51.052;13.772;2022-11-15T21:58:06;25.42;;;13.23;;
19113;SDS011;9689;51.052;13.772;2022-11-15T22:03:07;23.65;;;12.13;;
19113;SDS011;9689;51.052;13.772;2022-11-15T22:08:08;22.95;;;12.20;;
19113;SDS011;9689;51.052;13.772;2022-11-15T22:13:10;26.27;;;12.63;;
19113;SDS011;9689;51.052;13.772;2022-11-15T22:18:11;25.23;;;12.52;;
19113;SDS011;9689;51.052;13.772;2022-11-15T22:23:12;28.05;;;12.73;;
19113;SDS011;9689;51.052;13.772;2022-11-15T22:28:14;24.98;;;12.43;;
19113;SDS011;9689;51.052;13.772;2022-11-15T22:33:16;22.85;;;11.93;;
19113;SDS011;9689;51.052;13.772;2022-11-15T22:38:18;21.90;;;11.15;;
19113;SDS011;9689;51.052;13.772;2022-11-15T22:43:21;27.65;;;12.43;;
19113;SDS011;9689;51.052;13.772;2022-11-15T22:48:24;20.67;;;11.48;;
19113;SDS011;9689;51.052;13.772;2022-11-15T22:53:26;22.58;;;11.38;;
19113;SDS011;9689;51.052;13.772;2022-11-15T22:58:30;18.55;;;10.73;;
19113;SDS011;9689;51.052;13.772;2022-11-15T23:03:32;18.83;;;9.90;;
19113;SDS011;9689;51.052;13.772;2022-11-15T23:08:34;19.77;;;11.00;;
19113;SDS011;9689;51.052;13.772;2022-11-15T23:13:36;20.23;;;10.63;;
19113;SDS011;9689;51.052;13.772;2022-11-15T23:18:38;18.98;;;10.18;;
19113;SDS011;9689;51.052;13.772;2022-11-15T23:23:40;17.95;;;9.88;;
19113;SDS011;9689;51.052;13.772;2022-11-15T23:28:43;17.40;;;9.18;;
19113;SDS011;9689;51.052;13.772;2022-11-15T23:33:43;17.05;;;9.82;;
19113;SDS011;9689;51.052;13.772;2022-11-15T23:38:56;21.23;;;10.57;;
19113;SDS011;9689;51.052;13.772;2022-11-15T23:43:59;17.65;;;10.07;;
19113;SDS011;9689;51.052;13.772;2022-11-15T23:48:59;18.13;;;10.07;;
19113;SDS011;9689;51.052;13.772;2022-11-15T23:54:01;20.50;;;9.65;;
19113;SDS011;9689;51.052;13.772;2022-11-15T23:59:03;16.38;;;9.60;;
